sensor_id;sensor_type;location;lat;lon;timestamp;P1;durP1;ratioP1;P2;durP2;ratioP2
5811;SDS011;2932;52.400;9.558;2022-08-03T00:02:23;3.40;;;3.10;;
5811;SDS011;2932;52.400;9.558;2022-08-03T00:04:48;4.90;;;3.38;;
5811;SDS011;2932;52.400;9.558;2022-08-03T00:07:14;3.58;;;3.28;;
5811;SDS011;2932;52.400;9.558;2022-08-03T00:09:39;3.60;;;2.78;;
5811;SDS011;2932;52.400;9.558;2022-08-03T00:12:05;5.55;;;3.60;;
5811;SDS011;2932;52.400;9.558;2022-08-03T00:14:31;3.30;;;3.00;;
5811;SDS011;2932;52.400;9.558;2022-08-03T00:16:56;2.95;;;2.72;;
5811;SDS011;2932;52.400;9.558;2022-08-03T00:19:22;4.35;;;2.80;;
5811;SDS011;2932;52.400;9.558;2022-08-03T00:21:48;3.22;;;2.67;;
5811;SDS011;2932;52.400;9.558;2022-08-03T00:24:13;4.35;;;2.90;;
5811;SDS011;2932;52.400;9.558;2022-08-03T00:26:38;3.08;;;2.80;;
5811;SDS011;2932;52.400;9.558;2022-08-03T00:29:04;3.25;;;2.90;;
5811;SDS011;2932;52.400;9.558;2022-08-03T00:31:29;2.75;;;2.42;;
5811;SDS011;2932;52.400;9.558;2022-08-03T00:33:54;2.88;;;2.67;;
5811;SDS011;2932;52.400;9.558;2022-08-03T00:36:20;3.17;;;2.50;;
5811;SDS011;2932;52.400;9.558;2022-08-03T00:38:45;3.35;;;2.78;;
5811;SDS011;2932;52.400;9.558;2022-08-03T00:41:11;3.35;;;2.40;;
5811;SDS011;2932;52.400;9.558;2022-08-03T00:43:36;4.00;;;2.53;;
5811;SDS011;2932;52.400;9.558;2022-08-03T00:46:01;5.60;;;2.80;;
5811;SDS011;2932;52.400;9.558;2022-08-03T00:48:27;5.22;;;2.97;;
5811;SDS011;2932;52.400;9.558;2022-08-03T00:50:52;4.60;;;3.10;;
5811;SDS011;2932;52.400;9.558;2022-08-03T00:53:18;5.35;;;3.30;;
5811;SDS011;2932;52.400;9.558;2022-08-03T00:55:43;3.25;;;2.80;;
5811;SDS011;2932;52.400;9.558;2022-08-03T00:58:09;5.78;;;2.72;;
5811;SDS011;2932;52.400;9.558;2022-08-03T01:00:36;3.17;;;2.88;;
5811;SDS011;2932;52.400;9.558;2022-08-03T01:03:03;3.63;;;3.13;;
5811;SDS011;2932;52.400;9.558;2022-08-03T01:05:29;4.88;;;3.10;;
5811;SDS011;2932;52.400;9.558;2022-08-03T01:08:03;4.63;;;3.60;;
5811;SDS011;2932;52.400;9.558;2022-08-03T01:15:55;4.90;;;3.30;;
5811;SDS011;2932;52.400;9.558;2022-08-03T01:20:56;5.50;;;3.28;;
5811;SDS011;2932;52.400;9.558;2022-08-03T01:31:25;5.10;;;3.20;;
5811;SDS011;2932;52.400;9.558;2022-08-03T01:34:10;5.78;;;3.17;;
5811;SDS011;2932;52.400;9.558;2022-08-03T01:36:42;3.78;;;3.30;;
5811;SDS011;2932;52.400;9.558;2022-08-03T01:39:12;4.20;;;3.00;;
5811;SDS011;2932;52.400;9.558;2022-08-03T01:42:03;3.67;;;3.25;;
5811;SDS011;2932;52.400;9.558;2022-08-03T01:44:30;4.63;;;3.33;;
5811;SDS011;2932;52.400;9.558;2022-08-03T01:47:01;4.40;;;3.50;;
5811;SDS011;2932;52.400;9.558;2022-08-03T01:49:29;4.50;;;3.33;;
5811;SDS011;2932;52.400;9.558;2022-08-03T01:51:55;8.00;;;3.40;;
5811;SDS011;2932;52.400;9.558;2022-08-03T01:54:22;4.45;;;3.05;;
5811;SDS011;2932;52.400;9.558;2022-08-03T01:56:50;4.18;;;2.95;;
5811;SDS011;2932;52.400;9.558;2022-08-03T01:59:18;3.63;;;2.78;;
5811;SDS011;2932;52.400;9.558;2022-08-03T02:01:45;4.28;;;3.15;;
5811;SDS011;2932;52.400;9.558;2022-08-03T02:04:13;3.38;;;3.03;;
5811;SDS011;2932;52.400;9.558;2022-08-03T02:06:41;3.42;;;3.13;;
5811;SDS011;2932;52.400;9.558;2022-08-03T02:09:09;3.13;;;2.70;;
5811;SDS011;2932;52.400;9.558;2022-08-03T02:11:39;3.45;;;3.20;;
5811;SDS011;2932;52.400;9.558;2022-08-03T02:14:08;4.10;;;2.88;;
5811;SDS011;2932;52.400;9.558;2022-08-03T02:16:35;5.00;;;3.05;;
5811;SDS011;2932;52.400;9.558;2022-08-03T02:19:02;6.28;;;3.30;;
5811;SDS011;2932;52.400;9.558;2022-08-03T02:21:30;4.45;;;3.55;;
5811;SDS011;2932;52.400;9.558;2022-08-03T02:23:57;4.93;;;3.50;;
5811;SDS011;2932;52.400;9.558;2022-08-03T02:26:23;4.10;;;3.42;;
5811;SDS011;2932;52.400;9.558;2022-08-03T02:28:53;4.00;;;3.63;;
5811;SDS011;2932;52.400;9.558;2022-08-03T02:31:25;4.10;;;3.17;;
5811;SDS011;2932;52.400;9.558;2022-08-03T02:33:57;5.10;;;2.97;;
5811;SDS011;2932;52.400;9.558;2022-08-03T02:36:28;4.32;;;2.85;;
5811;SDS011;2932;52.400;9.558;2022-08-03T02:38:57;4.05;;;3.60;;
5811;SDS011;2932;52.400;9.558;2022-08-03T02:41:32;3.40;;;3.00;;
5811;SDS011;2932;52.400;9.558;2022-08-03T02:44:08;4.07;;;3.40;;
5811;SDS011;2932;52.400;9.558;2022-08-03T02:46:40;6.28;;;3.65;;
5811;SDS011;2932;52.400;9.558;2022-08-03T02:49:08;4.65;;;3.10;;
5811;SDS011;2932;52.400;9.558;2022-08-03T02:51:36;3.30;;;3.00;;
5811;SDS011;2932;52.400;9.558;2022-08-03T02:54:03;4.85;;;3.53;;
5811;SDS011;2932;52.400;9.558;2022-08-03T02:56:32;5.55;;;3.35;;
5811;SDS011;2932;52.400;9.558;2022-08-03T02:58:58;4.35;;;3.28;;
5811;SDS011;2932;52.400;9.558;2022-08-03T03:01:25;3.28;;;2.97;;
5811;SDS011;2932;52.400;9.558;2022-08-03T03:03:52;5.22;;;3.30;;
5811;SDS011;2932;52.400;9.558;2022-08-03T03:06:20;3.85;;;3.47;;
5811;SDS011;2932;52.400;9.558;2022-08-03T03:08:46;5.95;;;3.30;;
5811;SDS011;2932;52.400;9.558;2022-08-03T03:11:12;4.65;;;3.40;;
5811;SDS011;2932;52.400;9.558;2022-08-03T03:13:41;5.63;;;3.05;;
5811;SDS011;2932;52.400;9.558;2022-08-03T03:16:08;6.10;;;3.17;;
5811;SDS011;2932;52.400;9.558;2022-08-03T03:18:37;3.50;;;3.20;;
5811;SDS011;2932;52.400;9.558;2022-08-03T03:21:04;5.70;;;3.20;;
5811;SDS011;2932;52.400;9.558;2022-08-03T03:23:32;5.65;;;3.40;;
5811;SDS011;2932;52.400;9.558;2022-08-03T03:26:00;4.53;;;3.20;;
5811;SDS011;2932;52.400;9.558;2022-08-03T03:28:26;3.92;;;3.20;;
5811;SDS011;2932;52.400;9.558;2022-08-03T03:30:52;5.43;;;3.50;;
5811;SDS011;2932;52.400;9.558;2022-08-03T03:33:18;3.80;;;3.17;;
5811;SDS011;2932;52.400;9.558;2022-08-03T03:35:43;3.97;;;3.00;;
5811;SDS011;2932;52.400;9.558;2022-08-03T03:38:10;4.55;;;3.20;;
5811;SDS011;2932;52.400;9.558;2022-08-03T03:40:36;3.92;;;3.10;;
5811;SDS011;2932;52.400;9.558;2022-08-03T03:43:04;5.22;;;3.50;;
5811;SDS011;2932;52.400;9.558;2022-08-03T03:45:33;4.63;;;3.40;;
5811;SDS011;2932;52.400;9.558;2022-08-03T03:47:59;3.75;;;2.92;;
5811;SDS011;2932;52.400;9.558;2022-08-03T03:52:52;3.95;;;3.30;;
5811;SDS011;2932;52.400;9.558;2022-08-03T03:55:18;5.82;;;3.28;;
5811;SDS011;2932;52.400;9.558;2022-08-03T03:57:43;6.45;;;3.40;;
5811;SDS011;2932;52.400;9.558;2022-08-03T04:00:11;5.75;;;3.53;;
5811;SDS011;2932;52.400;9.558;2022-08-03T04:02:38;5.38;;;3.17;;
5811;SDS011;2932;52.400;9.558;2022-08-03T04:05:04;5.20;;;3.28;;
5811;SDS011;2932;52.400;9.558;2022-08-03T04:07:53;6.15;;;3.50;;
5811;SDS011;2932;52.400;9.558;2022-08-03T04:10:41;5.57;;;3.78;;
5811;SDS011;2932;52.400;9.558;2022-08-03T04:13:29;3.88;;;3.30;;
5811;SDS011;2932;52.400;9.558;2022-08-03T04:15:57;3.60;;;3.00;;
5811;SDS011;2932;52.400;9.558;2022-08-03T04:18:23;3.17;;;2.75;;
5811;SDS011;2932;52.400;9.558;2022-08-03T04:20:52;5.88;;;3.15;;
5811;SDS011;2932;52.400;9.558;2022-08-03T04:23:20;4.57;;;3.38;;
5811;SDS011;2932;52.400;9.558;2022-08-03T04:25:48;6.70;;;3.40;;
5811;SDS011;2932;52.400;9.558;2022-08-03T04:28:16;6.07;;;3.60;;
5811;SDS011;2932;52.400;9.558;2022-08-03T04:30:44;5.30;;;3.60;;
5811;SDS011;2932;52.400;9.558;2022-08-03T04:33:13;3.83;;;2.97;;
5811;SDS011;2932;52.400;9.558;2022-08-03T04:35:40;3.38;;;2.97;;
5811;SDS011;2932;52.400;9.558;2022-08-03T04:38:08;3.70;;;2.97;;
5811;SDS011;2932;52.400;9.558;2022-08-03T04:40:38;3.90;;;3.20;;
5811;SDS011;2932;52.400;9.558;2022-08-03T04:43:06;3.35;;;2.92;;
5811;SDS011;2932;52.400;9.558;2022-08-03T04:45:35;3.35;;;2.80;;
5811;SDS011;2932;52.400;9.558;2022-08-03T04:48:01;4.25;;;2.80;;
5811;SDS011;2932;52.400;9.558;2022-08-03T04:50:27;2.85;;;2.47;;
5811;SDS011;2932;52.400;9.558;2022-08-03T04:52:53;2.63;;;2.42;;
5811;SDS011;2932;52.400;9.558;2022-08-03T04:55:25;2.90;;;2.70;;
5811;SDS011;2932;52.400;9.558;2022-08-03T04:57:55;3.78;;;2.58;;
5811;SDS011;2932;52.400;9.558;2022-08-03T05:00:22;2.85;;;2.50;;
5811;SDS011;2932;52.400;9.558;2022-08-03T05:02:47;3.00;;;2.45;;
5811;SDS011;2932;52.400;9.558;2022-08-03T05:05:13;2.40;;;2.20;;
5811;SDS011;2932;52.400;9.558;2022-08-03T05:07:40;4.47;;;2.78;;
5811;SDS011;2932;52.400;9.558;2022-08-03T05:10:06;2.60;;;2.40;;
5811;SDS011;2932;52.400;9.558;2022-08-03T05:12:33;2.70;;;2.50;;
5811;SDS011;2932;52.400;9.558;2022-08-03T05:14:59;2.30;;;2.10;;
5811;SDS011;2932;52.400;9.558;2022-08-03T05:17:25;3.53;;;2.42;;
5811;SDS011;2932;52.400;9.558;2022-08-03T05:19:50;3.25;;;1.98;;
5811;SDS011;2932;52.400;9.558;2022-08-03T05:22:15;5.03;;;2.25;;
5811;SDS011;2932;52.400;9.558;2022-08-03T05:24:41;3.78;;;2.25;;
5811;SDS011;2932;52.400;9.558;2022-08-03T05:27:06;2.42;;;2.13;;
5811;SDS011;2932;52.400;9.558;2022-08-03T05:29:31;2.88;;;2.60;;
5811;SDS011;2932;52.400;9.558;2022-08-03T05:31:57;2.40;;;2.20;;
5811;SDS011;2932;52.400;9.558;2022-08-03T05:34:22;3.58;;;2.00;;
5811;SDS011;2932;52.400;9.558;2022-08-03T05:36:48;2.53;;;2.30;;
5811;SDS011;2932;52.400;9.558;2022-08-03T05:39:13;3.95;;;2.33;;
5811;SDS011;2932;52.400;9.558;2022-08-03T05:41:38;2.90;;;2.28;;
5811;SDS011;2932;52.400;9.558;2022-08-03T05:44:04;2.15;;;2.00;;
5811;SDS011;2932;52.400;9.558;2022-08-03T05:46:30;3.05;;;1.90;;
5811;SDS011;2932;52.400;9.558;2022-08-03T05:48:55;2.55;;;2.10;;
5811;SDS011;2932;52.400;9.558;2022-08-03T05:51:20;4.35;;;2.25;;
5811;SDS011;2932;52.400;9.558;2022-08-03T05:53:46;2.90;;;2.28;;
5811;SDS011;2932;52.400;9.558;2022-08-03T05:56:11;5.40;;;2.10;;
5811;SDS011;2932;52.400;9.558;2022-08-03T05:58:37;2.33;;;2.05;;
5811;SDS011;2932;52.400;9.558;2022-08-03T06:01:02;2.42;;;1.92;;
5811;SDS011;2932;52.400;9.558;2022-08-03T06:03:28;3.60;;;1.90;;
5811;SDS011;2932;52.400;9.558;2022-08-03T06:05:53;3.05;;;1.98;;
5811;SDS011;2932;52.400;9.558;2022-08-03T06:08:22;3.35;;;1.95;;
5811;SDS011;2932;52.400;9.558;2022-08-03T06:10:48;4.15;;;2.00;;
5811;SDS011;2932;52.400;9.558;2022-08-03T06:13:13;2.10;;;1.80;;
5811;SDS011;2932;52.400;9.558;2022-08-03T06:15:39;2.53;;;1.90;;
5811;SDS011;2932;52.400;9.558;2022-08-03T06:18:05;3.05;;;1.88;;
5811;SDS011;2932;52.400;9.558;2022-08-03T06:20:31;1.90;;;1.80;;
5811;SDS011;2932;52.400;9.558;2022-08-03T06:22:57;2.83;;;2.17;;
5811;SDS011;2932;52.400;9.558;2022-08-03T06:25:24;3.15;;;1.80;;
5811;SDS011;2932;52.400;9.558;2022-08-03T06:27:50;3.38;;;2.00;;
5811;SDS011;2932;52.400;9.558;2022-08-03T06:30:15;4.85;;;1.95;;
5811;SDS011;2932;52.400;9.558;2022-08-03T06:32:41;3.13;;;2.20;;
5811;SDS011;2932;52.400;9.558;2022-08-03T06:35:07;2.55;;;1.75;;
5811;SDS011;2932;52.400;9.558;2022-08-03T06:37:45;3.97;;;1.77;;
5811;SDS011;2932;52.400;9.558;2022-08-03T06:40:13;1.95;;;1.75;;
5811;SDS011;2932;52.400;9.558;2022-08-03T06:42:41;1.92;;;1.67;;
5811;SDS011;2932;52.400;9.558;2022-08-03T06:45:07;2.85;;;1.80;;
5811;SDS011;2932;52.400;9.558;2022-08-03T06:47:34;2.10;;;2.00;;
5811;SDS011;2932;52.400;9.558;2022-08-03T06:50:01;4.20;;;2.13;;
5811;SDS011;2932;52.400;9.558;2022-08-03T06:52:28;2.67;;;1.75;;
5811;SDS011;2932;52.400;9.558;2022-08-03T06:54:54;2.35;;;2.10;;
5811;SDS011;2932;52.400;9.558;2022-08-03T06:57:19;4.43;;;1.75;;
5811;SDS011;2932;52.400;9.558;2022-08-03T06:59:44;1.63;;;1.45;;
5811;SDS011;2932;52.400;9.558;2022-08-03T07:02:10;1.85;;;1.75;;
5811;SDS011;2932;52.400;9.558;2022-08-03T07:04:36;2.33;;;1.70;;
5811;SDS011;2932;52.400;9.558;2022-08-03T07:07:01;2.75;;;1.77;;
5811;SDS011;2932;52.400;9.558;2022-08-03T07:09:27;2.13;;;1.80;;
5811;SDS011;2932;52.400;9.558;2022-08-03T07:11:53;2.63;;;1.67;;
5811;SDS011;2932;52.400;9.558;2022-08-03T07:14:19;4.97;;;1.45;;
5811;SDS011;2932;52.400;9.558;2022-08-03T07:16:44;1.58;;;1.30;;
5811;SDS011;2932;52.400;9.558;2022-08-03T07:19:09;1.95;;;1.70;;
5811;SDS011;2932;52.400;9.558;2022-08-03T07:21:36;1.83;;;1.48;;
5811;SDS011;2932;52.400;9.558;2022-08-03T07:24:01;2.08;;;1.35;;
5811;SDS011;2932;52.400;9.558;2022-08-03T07:26:27;1.70;;;1.33;;
5811;SDS011;2932;52.400;9.558;2022-08-03T07:28:52;1.42;;;1.30;;
5811;SDS011;2932;52.400;9.558;2022-08-03T07:31:18;1.58;;;1.30;;
5811;SDS011;2932;52.400;9.558;2022-08-03T07:33:43;3.08;;;1.52;;
5811;SDS011;2932;52.400;9.558;2022-08-03T07:36:09;4.00;;;1.35;;
5811;SDS011;2932;52.400;9.558;2022-08-03T07:38:34;2.58;;;1.60;;
5811;SDS011;2932;52.400;9.558;2022-08-03T07:41:01;4.55;;;1.50;;
5811;SDS011;2932;52.400;9.558;2022-08-03T07:43:27;2.10;;;1.90;;
5811;SDS011;2932;52.400;9.558;2022-08-03T07:45:52;2.90;;;1.20;;
5811;SDS011;2932;52.400;9.558;2022-08-03T07:48:17;2.78;;;1.23;;
5811;SDS011;2932;52.400;9.558;2022-08-03T07:50:43;2.88;;;1.42;;
5811;SDS011;2932;52.400;9.558;2022-08-03T07:53:08;2.50;;;1.40;;
5811;SDS011;2932;52.400;9.558;2022-08-03T07:55:34;2.83;;;1.50;;
5811;SDS011;2932;52.400;9.558;2022-08-03T07:58:03;1.98;;;1.38;;
5811;SDS011;2932;52.400;9.558;2022-08-03T08:00:30;2.85;;;1.40;;
5811;SDS011;2932;52.400;9.558;2022-08-03T08:02:55;2.85;;;1.70;;
5811;SDS011;2932;52.400;9.558;2022-08-03T08:05:21;1.20;;;1.10;;
5811;SDS011;2932;52.400;9.558;2022-08-03T08:07:46;4.05;;;1.40;;
5811;SDS011;2932;52.400;9.558;2022-08-03T08:10:12;6.78;;;1.73;;
5811;SDS011;2932;52.400;9.558;2022-08-03T08:12:37;3.85;;;1.30;;
5811;SDS011;2932;52.400;9.558;2022-08-03T08:15:04;3.83;;;1.35;;
5811;SDS011;2932;52.400;9.558;2022-08-03T08:17:39;2.50;;;1.17;;
5811;SDS011;2932;52.400;9.558;2022-08-03T08:20:06;3.10;;;1.20;;
5811;SDS011;2932;52.400;9.558;2022-08-03T08:22:32;3.08;;;1.10;;
5811;SDS011;2932;52.400;9.558;2022-08-03T08:24:57;2.65;;;1.33;;
5811;SDS011;2932;52.400;9.558;2022-08-03T08:27:23;3.72;;;1.25;;
5811;SDS011;2932;52.400;9.558;2022-08-03T08:29:48;3.45;;;1.50;;
5811;SDS011;2932;52.400;9.558;2022-08-03T08:32:14;2.40;;;1.20;;
5811;SDS011;2932;52.400;9.558;2022-08-03T08:34:40;2.65;;;1.25;;
5811;SDS011;2932;52.400;9.558;2022-08-03T08:37:05;2.42;;;1.20;;
5811;SDS011;2932;52.400;9.558;2022-08-03T08:39:31;2.92;;;1.10;;
5811;SDS011;2932;52.400;9.558;2022-08-03T08:41:56;1.50;;;1.15;;
5811;SDS011;2932;52.400;9.558;2022-08-03T08:44:21;5.13;;;1.48;;
5811;SDS011;2932;52.400;9.558;2022-08-03T08:46:47;2.67;;;1.25;;
5811;SDS011;2932;52.400;9.558;2022-08-03T08:49:14;2.03;;;1.38;;
5811;SDS011;2932;52.400;9.558;2022-08-03T08:51:42;3.72;;;1.33;;
5811;SDS011;2932;52.400;9.558;2022-08-03T08:54:10;2.60;;;1.00;;
5811;SDS011;2932;52.400;9.558;2022-08-03T08:56:36;4.88;;;1.48;;
5811;SDS011;2932;52.400;9.558;2022-08-03T08:59:02;2.75;;;1.42;;
5811;SDS011;2932;52.400;9.558;2022-08-03T09:01:28;2.72;;;1.10;;
5811;SDS011;2932;52.400;9.558;2022-08-03T09:03:54;3.78;;;1.33;;
5811;SDS011;2932;52.400;9.558;2022-08-03T09:06:20;2.95;;;1.20;;
5811;SDS011;2932;52.400;9.558;2022-08-03T09:08:46;3.72;;;1.20;;
5811;SDS011;2932;52.400;9.558;2022-08-03T09:11:11;4.18;;;1.38;;
5811;SDS011;2932;52.400;9.558;2022-08-03T09:13:37;1.60;;;1.10;;
5811;SDS011;2932;52.400;9.558;2022-08-03T09:16:13;2.20;;;1.20;;
5811;SDS011;2932;52.400;9.558;2022-08-03T09:18:40;2.58;;;1.20;;
5811;SDS011;2932;52.400;9.558;2022-08-03T09:23:53;3.22;;;1.10;;
5811;SDS011;2932;52.400;9.558;2022-08-03T09:26:21;3.47;;;1.30;;
5811;SDS011;2932;52.400;9.558;2022-08-03T09:28:55;1.60;;;0.90;;
5811;SDS011;2932;52.400;9.558;2022-08-03T09:31:41;1.73;;;1.20;;
5811;SDS011;2932;52.400;9.558;2022-08-03T09:34:09;2.50;;;1.55;;
5811;SDS011;2932;52.400;9.558;2022-08-03T09:36:37;3.88;;;1.20;;
5811;SDS011;2932;52.400;9.558;2022-08-03T09:39:08;3.22;;;1.10;;
5811;SDS011;2932;52.400;9.558;2022-08-03T09:41:38;3.92;;;1.10;;
5811;SDS011;2932;52.400;9.558;2022-08-03T09:44:05;2.63;;;0.95;;
5811;SDS011;2932;52.400;9.558;2022-08-03T09:46:30;2.47;;;1.40;;
5811;SDS011;2932;52.400;9.558;2022-08-03T09:49:12;3.42;;;1.30;;
5811;SDS011;2932;52.400;9.558;2022-08-03T09:51:38;3.80;;;1.10;;
5811;SDS011;2932;52.400;9.558;2022-08-03T09:54:04;3.28;;;1.50;;
5811;SDS011;2932;52.400;9.558;2022-08-03T09:57:03;2.30;;;1.00;;
5811;SDS011;2932;52.400;9.558;2022-08-03T09:59:23;2.55;;;1.40;;
5811;SDS011;2932;52.400;9.558;2022-08-03T10:01:56;2.92;;;1.20;;
5811;SDS011;2932;52.400;9.558;2022-08-03T10:04:26;3.20;;;1.38;;
5811;SDS011;2932;52.400;9.558;2022-08-03T10:07:05;2.33;;;1.20;;
5811;SDS011;2932;52.400;9.558;2022-08-03T10:09:33;3.38;;;1.10;;
5811;SDS011;2932;52.400;9.558;2022-08-03T10:14:35;2.53;;;1.10;;
5811;SDS011;2932;52.400;9.558;2022-08-03T10:17:05;2.10;;;1.20;;
5811;SDS011;2932;52.400;9.558;2022-08-03T10:19:32;3.00;;;1.20;;
5811;SDS011;2932;52.400;9.558;2022-08-03T10:22:00;3.97;;;1.35;;
5811;SDS011;2932;52.400;9.558;2022-08-03T10:24:29;4.03;;;1.85;;
5811;SDS011;2932;52.400;9.558;2022-08-03T10:27:00;4.40;;;1.50;;
5811;SDS011;2932;52.400;9.558;2022-08-03T10:29:27;3.20;;;1.42;;
5811;SDS011;2932;52.400;9.558;2022-08-03T10:31:57;1.33;;;1.17;;
5811;SDS011;2932;52.400;9.558;2022-08-03T10:34:25;6.05;;;1.52;;
5811;SDS011;2932;52.400;9.558;2022-08-03T10:36:54;2.97;;;1.27;;
5811;SDS011;2932;52.400;9.558;2022-08-03T10:39:22;1.50;;;1.10;;
5811;SDS011;2932;52.400;9.558;2022-08-03T10:41:54;2.95;;;1.23;;
5811;SDS011;2932;52.400;9.558;2022-08-03T10:44:23;3.42;;;1.38;;
5811;SDS011;2932;52.400;9.558;2022-08-03T10:46:50;3.47;;;1.13;;
5811;SDS011;2932;52.400;9.558;2022-08-03T10:49:18;2.75;;;1.50;;
5811;SDS011;2932;52.400;9.558;2022-08-03T10:51:45;3.63;;;1.10;;
5811;SDS011;2932;52.400;9.558;2022-08-03T11:00:06;2.55;;;1.30;;
5811;SDS011;2932;52.400;9.558;2022-08-03T11:03:00;3.65;;;1.13;;
5811;SDS011;2932;52.400;9.558;2022-08-03T11:05:31;3.05;;;1.63;;
5811;SDS011;2932;52.400;9.558;2022-08-03T11:10:48;4.68;;;1.10;;
5811;SDS011;2932;52.400;9.558;2022-08-03T11:13:16;3.15;;;1.05;;
5811;SDS011;2932;52.400;9.558;2022-08-03T11:15:45;2.75;;;0.88;;
5811;SDS011;2932;52.400;9.558;2022-08-03T11:18:13;1.98;;;1.10;;
5811;SDS011;2932;52.400;9.558;2022-08-03T11:23:14;2.78;;;1.23;;
5811;SDS011;2932;52.400;9.558;2022-08-03T11:28:35;1.55;;;1.10;;
5811;SDS011;2932;52.400;9.558;2022-08-03T11:34:02;3.83;;;1.13;;
5811;SDS011;2932;52.400;9.558;2022-08-03T11:36:28;2.42;;;1.13;;
5811;SDS011;2932;52.400;9.558;2022-08-03T11:39:12;2.22;;;1.08;;
5811;SDS011;2932;52.400;9.558;2022-08-03T11:41:39;1.52;;;1.00;;
5811;SDS011;2932;52.400;9.558;2022-08-03T11:44:04;2.97;;;1.25;;
5811;SDS011;2932;52.400;9.558;2022-08-03T11:46:35;4.20;;;1.27;;
5811;SDS011;2932;52.400;9.558;2022-08-03T11:49:05;3.10;;;1.25;;
5811;SDS011;2932;52.400;9.558;2022-08-03T11:51:33;1.92;;;1.20;;
5811;SDS011;2932;52.400;9.558;2022-08-03T11:54:02;1.38;;;1.20;;
5811;SDS011;2932;52.400;9.558;2022-08-03T11:56:42;1.15;;;1.00;;
5811;SDS011;2932;52.400;9.558;2022-08-03T11:59:09;3.33;;;1.23;;
5811;SDS011;2932;52.400;9.558;2022-08-03T12:01:34;4.20;;;1.20;;
5811;SDS011;2932;52.400;9.558;2022-08-03T12:04:03;2.40;;;1.20;;
5811;SDS011;2932;52.400;9.558;2022-08-03T12:06:29;3.28;;;1.17;;
5811;SDS011;2932;52.400;9.558;2022-08-03T12:08:55;3.08;;;1.50;;
5811;SDS011;2932;52.400;9.558;2022-08-03T12:11:20;3.45;;;1.30;;
5811;SDS011;2932;52.400;9.558;2022-08-03T12:13:48;3.22;;;1.10;;
5811;SDS011;2932;52.400;9.558;2022-08-03T12:18:53;3.22;;;1.50;;
5811;SDS011;2932;52.400;9.558;2022-08-03T12:21:29;2.88;;;1.20;;
5811;SDS011;2932;52.400;9.558;2022-08-03T12:24:02;2.85;;;1.13;;
5811;SDS011;2932;52.400;9.558;2022-08-03T12:26:29;1.10;;;0.90;;
5811;SDS011;2932;52.400;9.558;2022-08-03T12:29:06;3.13;;;1.13;;
5811;SDS011;2932;52.400;9.558;2022-08-03T12:31:31;2.60;;;1.05;;
5811;SDS011;2932;52.400;9.558;2022-08-03T12:33:57;4.75;;;1.70;;
5811;SDS011;2932;52.400;9.558;2022-08-03T12:36:23;1.30;;;1.00;;
5811;SDS011;2932;52.400;9.558;2022-08-03T12:39:00;3.00;;;1.00;;
5811;SDS011;2932;52.400;9.558;2022-08-03T12:41:31;1.33;;;1.00;;
5811;SDS011;2932;52.400;9.558;2022-08-03T12:43:57;2.53;;;1.05;;
5811;SDS011;2932;52.400;9.558;2022-08-03T12:46:27;1.20;;;0.80;;
5811;SDS011;2932;52.400;9.558;2022-08-03T12:49:01;3.92;;;1.00;;
5811;SDS011;2932;52.400;9.558;2022-08-03T12:51:27;2.95;;;1.10;;
5811;SDS011;2932;52.400;9.558;2022-08-03T12:53:54;2.30;;;1.23;;
5811;SDS011;2932;52.400;9.558;2022-08-03T12:56:20;3.25;;;1.00;;
5811;SDS011;2932;52.400;9.558;2022-08-03T12:58:46;2.92;;;1.00;;
5811;SDS011;2932;52.400;9.558;2022-08-03T13:01:12;2.15;;;1.13;;
5811;SDS011;2932;52.400;9.558;2022-08-03T13:03:44;2.75;;;0.95;;
5811;SDS011;2932;52.400;9.558;2022-08-03T13:06:15;1.23;;;1.00;;
5811;SDS011;2932;52.400;9.558;2022-08-03T13:08:42;3.05;;;1.35;;
5811;SDS011;2932;52.400;9.558;2022-08-03T13:13:42;3.63;;;1.17;;
5811;SDS011;2932;52.400;9.558;2022-08-03T13:16:07;1.15;;;0.90;;
5811;SDS011;2932;52.400;9.558;2022-08-03T13:18:33;1.85;;;0.93;;
5811;SDS011;2932;52.400;9.558;2022-08-03T13:20:58;2.22;;;0.90;;
5811;SDS011;2932;52.400;9.558;2022-08-03T13:23:24;3.38;;;1.02;;
5811;SDS011;2932;52.400;9.558;2022-08-03T13:25:49;0.95;;;0.80;;
5811;SDS011;2932;52.400;9.558;2022-08-03T13:28:15;2.97;;;1.10;;
5811;SDS011;2932;52.400;9.558;2022-08-03T13:30:40;2.63;;;0.82;;
5811;SDS011;2932;52.400;9.558;2022-08-03T13:33:07;1.65;;;1.20;;
5811;SDS011;2932;52.400;9.558;2022-08-03T13:35:32;2.92;;;1.35;;
5811;SDS011;2932;52.400;9.558;2022-08-03T13:37:57;2.50;;;0.95;;
5811;SDS011;2932;52.400;9.558;2022-08-03T13:40:23;4.72;;;1.15;;
5811;SDS011;2932;52.400;9.558;2022-08-03T13:42:48;4.15;;;1.05;;
5811;SDS011;2932;52.400;9.558;2022-08-03T13:45:14;2.25;;;0.77;;
5811;SDS011;2932;52.400;9.558;2022-08-03T13:47:39;1.75;;;0.90;;
5811;SDS011;2932;52.400;9.558;2022-08-03T13:50:04;2.00;;;1.35;;
5811;SDS011;2932;52.400;9.558;2022-08-03T13:52:33;1.73;;;1.00;;
5811;SDS011;2932;52.400;9.558;2022-08-03T13:55:00;3.53;;;1.10;;
5811;SDS011;2932;52.400;9.558;2022-08-03T13:57:26;1.88;;;0.80;;
5811;SDS011;2932;52.400;9.558;2022-08-03T13:59:52;2.88;;;0.90;;
5811;SDS011;2932;52.400;9.558;2022-08-03T14:02:17;2.13;;;1.20;;
5811;SDS011;2932;52.400;9.558;2022-08-03T14:04:42;2.35;;;1.05;;
5811;SDS011;2932;52.400;9.558;2022-08-03T14:07:08;2.67;;;1.23;;
5811;SDS011;2932;52.400;9.558;2022-08-03T14:09:33;1.95;;;1.00;;
5811;SDS011;2932;52.400;9.558;2022-08-03T14:11:59;1.73;;;0.93;;
5811;SDS011;2932;52.400;9.558;2022-08-03T14:14:24;3.05;;;1.20;;
5811;SDS011;2932;52.400;9.558;2022-08-03T14:16:49;1.10;;;1.00;;
5811;SDS011;2932;52.400;9.558;2022-08-03T14:19:15;2.38;;;0.80;;
5811;SDS011;2932;52.400;9.558;2022-08-03T14:21:40;3.05;;;1.10;;
5811;SDS011;2932;52.400;9.558;2022-08-03T14:24:06;1.58;;;0.90;;
5811;SDS011;2932;52.400;9.558;2022-08-03T14:26:31;1.83;;;0.90;;
5811;SDS011;2932;52.400;9.558;2022-08-03T14:28:57;2.97;;;1.17;;
5811;SDS011;2932;52.400;9.558;2022-08-03T14:31:22;2.38;;;0.82;;
5811;SDS011;2932;52.400;9.558;2022-08-03T14:33:48;2.78;;;0.98;;
5811;SDS011;2932;52.400;9.558;2022-08-03T14:36:13;4.20;;;0.90;;
5811;SDS011;2932;52.400;9.558;2022-08-03T14:38:38;1.65;;;1.00;;
5811;SDS011;2932;52.400;9.558;2022-08-03T14:41:04;3.35;;;1.10;;
5811;SDS011;2932;52.400;9.558;2022-08-03T14:43:29;5.20;;;1.30;;
5811;SDS011;2932;52.400;9.558;2022-08-03T14:45:55;1.75;;;1.23;;
5811;SDS011;2932;52.400;9.558;2022-08-03T14:48:23;1.50;;;0.85;;
5811;SDS011;2932;52.400;9.558;2022-08-03T14:50:51;2.50;;;1.10;;
5811;SDS011;2932;52.400;9.558;2022-08-03T14:53:17;1.80;;;0.80;;
5811;SDS011;2932;52.400;9.558;2022-08-03T14:55:43;3.95;;;1.30;;
5811;SDS011;2932;52.400;9.558;2022-08-03T14:58:10;1.52;;;1.00;;
5811;SDS011;2932;52.400;9.558;2022-08-03T15:00:36;1.90;;;0.90;;
5811;SDS011;2932;52.400;9.558;2022-08-03T15:03:02;2.10;;;0.98;;
5811;SDS011;2932;52.400;9.558;2022-08-03T15:05:28;2.78;;;1.00;;
5811;SDS011;2932;52.400;9.558;2022-08-03T15:07:53;0.68;;;0.68;;
5811;SDS011;2932;52.400;9.558;2022-08-03T15:10:19;3.28;;;1.23;;
5811;SDS011;2932;52.400;9.558;2022-08-03T15:12:44;0.98;;;0.82;;
5811;SDS011;2932;52.400;9.558;2022-08-03T15:15:10;2.03;;;1.00;;
5811;SDS011;2932;52.400;9.558;2022-08-03T15:17:35;5.65;;;1.88;;
5811;SDS011;2932;52.400;9.558;2022-08-03T15:20:01;1.65;;;0.80;;
5811;SDS011;2932;52.400;9.558;2022-08-03T15:22:26;1.92;;;1.10;;
5811;SDS011;2932;52.400;9.558;2022-08-03T15:24:52;2.10;;;1.00;;
5811;SDS011;2932;52.400;9.558;2022-08-03T15:27:18;3.50;;;1.20;;
5811;SDS011;2932;52.400;9.558;2022-08-03T15:29:43;2.25;;;1.00;;
5811;SDS011;2932;52.400;9.558;2022-08-03T15:32:08;2.25;;;1.00;;
5811;SDS011;2932;52.400;9.558;2022-08-03T15:34:34;2.47;;;1.20;;
5811;SDS011;2932;52.400;9.558;2022-08-03T15:36:59;2.83;;;0.90;;
5811;SDS011;2932;52.400;9.558;2022-08-03T15:39:24;4.10;;;1.10;;
5811;SDS011;2932;52.400;9.558;2022-08-03T15:41:50;1.23;;;1.00;;
5811;SDS011;2932;52.400;9.558;2022-08-03T15:44:18;2.17;;;1.30;;
5811;SDS011;2932;52.400;9.558;2022-08-03T15:46:44;1.38;;;1.10;;
5811;SDS011;2932;52.400;9.558;2022-08-03T15:49:10;1.77;;;1.15;;
5811;SDS011;2932;52.400;9.558;2022-08-03T15:51:35;3.30;;;1.40;;
5811;SDS011;2932;52.400;9.558;2022-08-03T15:54:02;1.92;;;1.08;;
5811;SDS011;2932;52.400;9.558;2022-08-03T15:56:28;1.73;;;1.23;;
5811;SDS011;2932;52.400;9.558;2022-08-03T15:58:53;2.75;;;2.25;;
5811;SDS011;2932;52.400;9.558;2022-08-03T16:01:21;5.45;;;2.88;;
5811;SDS011;2932;52.400;9.558;2022-08-03T16:03:49;9.93;;;5.70;;